createdAt,value
2018-11-10T00:00:34.290Z,14.14
2018-11-10T00:01:34.308Z,14.14
2018-11-10T00:02:34.874Z,14.11
2018-11-10T00:03:34.353Z,14.12
2018-11-10T00:04:34.640Z,14
2018-11-10T00:05:34.392Z,14.05
2018-11-10T00:06:34.685Z,13.97
2018-11-10T00:07:34.436Z,13.99
2018-11-10T00:08:35.184Z,14.08
2018-11-10T00:09:34.488Z,14.05
2018-11-10T00:10:34.774Z,14.1
2018-11-10T00:11:34.819Z,14.04
2018-11-10T00:12:34.551Z,14
2018-11-10T00:13:35.116Z,14
2018-11-10T00:14:34.875Z,13.96
2018-11-10T00:15:34.906Z,14.03
2018-11-10T00:16:35.042Z,14
2018-11-10T00:17:34.940Z,14.04
2018-11-10T00:18:34.962Z,14.03
2018-11-10T00:19:34.978Z,14.03
2018-11-10T00:20:34.732Z,13.95
2018-11-10T00:21:35.292Z,13.96
2018-11-10T00:22:34.778Z,13.99
2018-11-10T00:23:35.343Z,13.95
2018-11-10T00:24:35.099Z,13.96
2018-11-10T00:25:35.118Z,13.99
2018-11-10T00:26:35.152Z,13.93
2018-11-10T00:27:35.156Z,13.95
2018-11-10T00:28:34.919Z,14
2018-11-10T00:29:35.198Z,13.87
2018-11-10T00:30:35.224Z,13.97
2018-11-10T00:31:35.260Z,13.79
2018-11-10T00:32:35.287Z,13.81
2018-11-10T00:33:35.556Z,13.86
2018-11-10T00:34:35.101Z,13.87
2018-11-10T00:35:35.345Z,13.89
2018-11-10T00:36:35.357Z,13.92
2018-11-10T00:37:35.389Z,13.78
2018-11-10T00:38:35.138Z,13.85
2018-11-10T00:39:35.705Z,13.83
2018-11-10T00:40:35.718Z,13.78
2018-11-10T00:41:35.211Z,13.83
2018-11-10T00:42:35.502Z,13.81
2018-11-10T00:43:35.794Z,13.78
2018-11-10T00:44:35.543Z,13.72
2018-11-10T00:45:35.836Z,13.75
2018-11-10T00:46:35.593Z,13.72
2018-11-10T00:47:35.614Z,13.79
2018-11-10T00:48:35.915Z,13.74
2018-11-10T00:49:35.916Z,13.72
2018-11-10T00:50:35.687Z,13.77
2018-11-10T00:51:35.426Z,13.74
2018-11-10T00:52:35.995Z,13.71
2018-11-10T00:53:36.028Z,13.74
2018-11-10T00:54:35.780Z,13.71
2018-11-10T00:55:35.528Z,13.72
2018-11-10T00:56:35.552Z,13.72
2018-11-10T00:57:35.565Z,13.7
2018-11-10T00:58:35.845Z,13.68
2018-11-10T00:59:35.611Z,13.68
2018-11-10T01:00:35.900Z,13.68
2018-11-10T01:01:35.657Z,13.74
2018-11-10T01:02:35.677Z,13.77
2018-11-10T01:03:35.972Z,13.71
2018-11-10T01:04:35.984Z,13.63
2018-11-10T01:05:36.137Z,13.63
2018-11-10T01:06:36.026Z,13.67
2018-11-10T01:07:36.058Z,13.7
2018-11-10T01:08:35.813Z,13.71
2018-11-10T01:09:35.835Z,13.71
2018-11-10T01:10:36.137Z,13.72
2018-11-10T01:11:36.140Z,13.74
2018-11-10T01:12:36.451Z,13.74
2018-11-10T01:13:36.198Z,13.67
2018-11-10T01:14:36.204Z,13.7
2018-11-10T01:15:36.233Z,13.7
2018-11-10T01:16:36.270Z,13.68
2018-11-10T01:17:36.274Z,13.7
2018-11-10T01:18:36.031Z,13.68
2018-11-10T01:19:36.322Z,13.68
2018-11-10T01:20:36.634Z,13.59
2018-11-10T01:21:36.383Z,13.57
2018-11-10T01:22:36.395Z,13.7
2018-11-10T01:23:36.150Z,13.62
2018-11-10T01:24:36.172Z,13.59
2018-11-10T01:25:36.471Z,13.6
2018-11-10T01:26:36.208Z,13.6
2018-11-10T01:27:36.884Z,13.63
2018-11-10T01:28:36.792Z,13.62
2018-11-10T01:29:36.292Z,13.6
2018-11-10T01:30:36.300Z,13.57
2018-11-10T01:31:36.587Z,13.62
2018-11-10T01:32:36.616Z,13.53
2018-11-10T01:33:36.366Z,13.59
2018-11-10T01:34:36.948Z,13.54
2018-11-10T01:35:36.418Z,13.62
2018-11-10T01:36:36.702Z,13.57
2018-11-10T01:37:36.455Z,13.54
2018-11-10T01:38:36.747Z,13.56
2018-11-10T01:39:37.038Z,13.56
2018-11-10T01:40:36.800Z,13.52
2018-11-10T01:41:36.541Z,13.56
2018-11-10T01:42:36.570Z,13.49
2018-11-10T01:43:36.860Z,13.59
2018-11-10T01:44:36.873Z,13.59
2018-11-10T01:45:36.901Z,13.53
2018-11-10T01:46:37.192Z,13.56
2018-11-10T01:47:37.214Z,13.42
2018-11-10T01:48:37.227Z,13.42
2018-11-10T01:49:37.270Z,13.59
2018-11-10T01:50:37.033Z,13.52
2018-11-10T01:51:37.033Z,13.41
2018-11-10T01:52:37.057Z,13.54
2018-11-10T01:53:37.358Z,13.42
2018-11-10T01:54:36.844Z,13.46
2018-11-10T01:55:36.858Z,13.46
2018-11-10T01:56:37.161Z,13.42
2018-11-10T01:57:37.166Z,13.56
2018-11-10T01:58:37.203Z,13.49
2018-11-10T01:59:36.944Z,13.5
2018-11-10T02:00:36.972Z,13.39
2018-11-10T02:01:36.996Z,13.41
2018-11-10T02:02:37.022Z,13.44
2018-11-10T02:03:37.298Z,13.47
2018-11-10T02:04:37.602Z,13.44
2018-11-10T02:05:37.621Z,13.39
2018-11-10T02:06:37.460Z,13.5
2018-11-10T02:07:37.386Z,13.37
2018-11-10T02:08:37.144Z,13.35
2018-11-10T02:09:37.453Z,13.39
2018-11-10T02:10:37.457Z,13.44
2018-11-10T02:11:37.489Z,13.46
2018-11-10T02:12:37.242Z,13.46
2018-11-10T02:13:37.524Z,13.44
2018-11-10T02:14:37.553Z,13.39
2018-11-10T02:15:37.845Z,13.44
2018-11-10T02:16:37.583Z,13.35
2018-11-10T02:17:37.629Z,13.49
2018-11-10T02:18:37.374Z,13.47
2018-11-10T02:19:37.391Z,13.41
2018-11-10T02:20:37.674Z,13.41
2018-11-10T02:21:37.969Z,13.42
2018-11-10T02:22:37.986Z,13.47
2018-11-10T02:23:37.748Z,13.5
2018-11-10T02:24:37.763Z,13.47
2018-11-10T02:25:37.784Z,13.47
2018-11-10T02:26:37.818Z,13.49
2018-11-10T02:27:38.103Z,13.44
2018-11-10T02:28:37.866Z,13.44
2018-11-10T02:29:37.887Z,13.5
2018-11-10T02:30:38.164Z,13.49
2018-11-10T02:31:38.185Z,13.47
2018-11-10T02:32:37.955Z,13.54
2018-11-10T02:33:37.695Z,13.52
2018-11-10T02:34:38.274Z,13.44
2018-11-10T02:35:37.738Z,13.46
2018-11-10T02:36:38.042Z,13.42
2018-11-10T02:37:37.787Z,13.42
2018-11-10T02:38:38.167Z,13.5
2018-11-10T02:39:38.106Z,13.49
2018-11-10T02:40:37.853Z,13.46
2018-11-10T02:41:37.876Z,13.46
2018-11-10T02:42:38.166Z,13.44
2018-11-10T02:43:38.191Z,13.49
2018-11-10T02:44:37.947Z,13.49
2018-11-10T02:45:38.497Z,13.44
2018-11-10T02:46:38.260Z,13.42
2018-11-10T02:47:38.270Z,13.42
2018-11-10T02:48:38.307Z,13.41
2018-11-10T02:49:38.319Z,13.41
2018-11-10T02:50:38.603Z,13.44
2018-11-10T02:51:38.628Z,13.38
2018-11-10T02:52:38.794Z,13.47
2018-11-10T02:53:38.403Z,13.49
2018-11-10T02:54:38.433Z,13.37
2018-11-10T02:55:38.446Z,13.49
2018-11-10T02:56:38.734Z,13.5
2018-11-10T02:57:38.222Z,13.47
2018-11-10T02:58:38.792Z,13.46
2018-11-10T02:59:38.269Z,13.44
2018-11-10T03:00:38.560Z,13.46
2018-11-10T03:01:38.841Z,13.47
2018-11-10T03:02:38.607Z,13.47
2018-11-10T03:03:38.370Z,13.46
2018-11-10T03:04:38.378Z,13.39
2018-11-10T03:05:38.677Z,13.47
2018-11-10T03:06:38.951Z,13.39
2018-11-10T03:07:38.994Z,13.39
2018-11-10T03:08:38.745Z,13.42
2018-11-10T03:09:38.754Z,13.44
2018-11-10T03:10:39.210Z,13.42
2018-11-10T03:11:38.548Z,13.44
2018-11-10T03:12:38.821Z,13.46
2018-11-10T03:13:38.577Z,13.47
2018-11-10T03:14:38.864Z,13.47
2018-11-10T03:15:38.893Z,13.44
2018-11-10T03:16:39.113Z,13.49
2018-11-10T03:17:39.209Z,13.47
2018-11-10T03:18:38.685Z,13.5
2018-11-10T03:19:38.980Z,13.44
2018-11-10T03:20:39.275Z,13.41
2018-11-10T03:21:39.030Z,13.5
2018-11-10T03:22:38.779Z,13.46
2018-11-10T03:23:39.062Z,13.54
2018-11-10T03:24:38.824Z,13.57
2018-11-10T03:25:39.117Z,13.49
2018-11-10T03:26:39.123Z,13.57
2018-11-10T03:27:39.143Z,13.54
2018-11-10T03:28:39.172Z,13.54
2018-11-10T03:29:39.192Z,13.44
2018-11-10T03:30:39.225Z,13.52
2018-11-10T03:31:38.973Z,13.47
2018-11-10T03:32:39.012Z,13.49
2018-11-10T03:33:39.018Z,13.44
2018-11-10T03:34:39.314Z,13.5
2018-11-10T03:35:39.334Z,13.44
2018-11-10T03:36:39.081Z,13.46
2018-11-10T03:37:39.646Z,13.46
2018-11-10T03:38:39.398Z,13.44
2018-11-10T03:39:39.147Z,13.42
2018-11-10T03:40:39.174Z,13.46
2018-11-10T03:41:39.188Z,13.42
2018-11-10T03:42:39.486Z,13.46
2018-11-10T03:43:39.793Z,13.46
2018-11-10T03:44:39.529Z,13.46
2018-11-10T03:45:39.557Z,13.49
2018-11-10T03:46:39.308Z,13.39
2018-11-10T03:47:39.588Z,13.47
2018-11-10T03:48:40.011Z,13.41
2018-11-10T03:49:39.648Z,13.53
2018-11-10T03:50:39.663Z,13.42
2018-11-10T03:51:39.428Z,13.47
2018-11-10T03:52:39.714Z,13.44
2018-11-10T03:53:39.728Z,13.56
2018-11-10T03:54:39.740Z,13.53
2018-11-10T03:55:39.762Z,13.5
2018-11-10T03:56:39.796Z,13.53
2018-11-10T03:57:39.828Z,13.56
2018-11-10T03:58:39.850Z,13.53
2018-11-10T03:59:39.853Z,13.53
2018-11-10T04:00:39.877Z,13.52
2018-11-10T04:01:39.897Z,13.53
2018-11-10T04:02:39.654Z,13.59
2018-11-10T04:03:39.949Z,13.53
2018-11-10T04:04:40.230Z,13.59
2018-11-10T04:05:39.987Z,13.42
2018-11-10T04:06:39.749Z,13.53
2018-11-10T04:07:39.771Z,13.53
2018-11-10T04:08:40.337Z,13.47
2018-11-10T04:09:40.081Z,13.5
2018-11-10T04:10:39.839Z,13.47
2018-11-10T04:11:40.390Z,13.47
2018-11-10T04:12:39.893Z,13.42
2018-11-10T04:13:39.903Z,13.47
2018-11-10T04:14:40.476Z,13.53
2018-11-10T04:15:40.202Z,13.39
2018-11-10T04:16:39.966Z,13.42
2018-11-10T04:17:39.988Z,13.49
2018-11-10T04:18:40.001Z,13.46
2018-11-10T04:19:40.308Z,13.49
2018-11-10T04:20:40.320Z,13.44
2018-11-10T04:21:40.345Z,13.47
2018-11-10T04:22:40.363Z,13.41
2018-11-10T04:23:40.390Z,13.49
2018-11-10T04:24:40.415Z,13.5
2018-11-10T04:25:40.429Z,13.53
2018-11-10T04:26:40.194Z,13.5
2018-11-10T04:27:40.198Z,13.56
2018-11-10T04:28:40.502Z,13.56
2018-11-10T04:29:40.789Z,13.59
2018-11-10T04:30:40.810Z,13.42
2018-11-10T04:31:40.296Z,13.52
2018-11-10T04:32:40.601Z,13.46
2018-11-10T04:33:40.615Z,13.49
2018-11-10T04:34:40.362Z,13.42
2018-11-10T04:35:40.644Z,13.49
2018-11-10T04:36:40.671Z,13.47
2018-11-10T04:37:40.949Z,13.42
2018-11-10T04:38:40.718Z,13.42
2018-11-10T04:39:41.010Z,13.41
2018-11-10T04:40:40.754Z,13.47
2018-11-10T04:41:40.801Z,13.46
2018-11-10T04:42:41.081Z,13.41
2018-11-10T04:43:40.552Z,13.37
2018-11-10T04:44:40.585Z,13.41
2018-11-10T04:45:40.864Z,13.39
2018-11-10T04:46:40.628Z,13.38
2018-11-10T04:47:40.940Z,13.35
2018-11-10T04:48:40.670Z,13.39
2018-11-10T04:49:40.733Z,13.39
2018-11-10T04:50:40.978Z,13.46
2018-11-10T04:51:41.000Z,13.47
2018-11-10T04:52:40.756Z,13.46
2018-11-10T04:53:40.775Z,13.42
2018-11-10T04:54:41.083Z,13.39
2018-11-10T04:55:41.360Z,13.39
2018-11-10T04:56:40.844Z,13.46
2018-11-10T04:57:40.859Z,13.44
2018-11-10T04:58:41.166Z,13.39
2018-11-10T04:59:41.171Z,13.47
2018-11-10T05:00:40.928Z,13.46
2018-11-10T05:01:40.956Z,13.47
2018-11-10T05:02:41.236Z,13.44
2018-11-10T05:03:41.263Z,13.39
2018-11-10T05:04:41.288Z,13.39
2018-11-10T05:05:41.308Z,13.35
2018-11-10T05:06:41.324Z,13.44
2018-11-10T05:07:41.354Z,13.3
2018-11-10T05:08:41.102Z,13.42
2018-11-10T05:09:41.392Z,13.37
2018-11-10T05:10:41.416Z,13.38
2018-11-10T05:11:41.165Z,13.38
2018-11-10T05:12:41.476Z,13.41
2018-11-10T05:13:41.220Z,13.27
2018-11-10T05:14:41.500Z,13.41
2018-11-10T05:15:41.822Z,13.46
2018-11-10T05:16:41.822Z,13.41
2018-11-10T05:17:41.577Z,13.33
2018-11-10T05:18:41.857Z,13.37
2018-11-10T05:19:41.880Z,13.35
2018-11-10T05:20:41.647Z,13.25
2018-11-10T05:21:41.930Z,13.33
2018-11-10T05:22:41.688Z,13.31
2018-11-10T05:23:41.711Z,13.39
2018-11-10T05:24:41.730Z,13.25
2018-11-10T05:25:41.485Z,13.41
2018-11-10T05:26:41.766Z,13.37
2018-11-10T05:27:41.525Z,13.25
2018-11-10T05:28:41.561Z,13.37
2018-11-10T05:29:41.834Z,13.25
2018-11-10T05:30:41.585Z,13.28
2018-11-10T05:31:42.148Z,13.3
2018-11-10T05:32:41.638Z,13.31
2018-11-10T05:33:42.208Z,13.27
2018-11-10T05:34:41.673Z,13.27
2018-11-10T05:35:41.708Z,13.25
2018-11-10T05:36:42.271Z,13.28
2018-11-10T05:37:42.015Z,13.23
2018-11-10T05:38:42.035Z,13.19
2018-11-10T05:39:41.794Z,13.3
2018-11-10T05:40:41.803Z,13.22
2018-11-10T05:41:41.834Z,13.3
2018-11-10T05:42:42.395Z,13.27
2018-11-10T05:43:41.869Z,13.18
2018-11-10T05:44:42.160Z,13.23
2018-11-10T05:45:42.186Z,13.23
2018-11-10T05:46:42.220Z,13.3
2018-11-10T05:47:42.223Z,13.25
2018-11-10T05:48:42.256Z,13.27
2018-11-10T05:49:42.271Z,13.25
2018-11-10T05:50:42.325Z,13.25
2018-11-10T05:51:42.046Z,13.3
2018-11-10T05:52:42.333Z,13.3
2018-11-10T05:53:42.356Z,13.2
2018-11-10T05:54:42.108Z,13.23
2018-11-10T05:55:42.395Z,13.33
2018-11-10T05:56:42.165Z,13.18
2018-11-10T05:57:42.185Z,13.27
2018-11-10T05:58:42.474Z,13.25
2018-11-10T05:59:42.485Z,13.23
2018-11-10T06:00:42.249Z,13.12
2018-11-10T06:01:42.795Z,13.16
2018-11-10T06:02:42.283Z,13.27
2018-11-10T06:03:42.842Z,13.27
2018-11-10T06:04:42.604Z,13.28
2018-11-10T06:05:42.899Z,13.15
2018-11-10T06:06:42.639Z,13.37
2018-11-10T06:07:42.664Z,13.35
2018-11-10T06:08:42.951Z,13.18
2018-11-10T06:09:42.585Z,13.3
2018-11-10T06:10:42.467Z,13.23
2018-11-10T06:11:43.025Z,13.31
2018-11-10T06:12:42.772Z,13.37
2018-11-10T06:13:42.819Z,13.33
2018-11-10T06:14:43.082Z,13.27
2018-11-10T06:15:42.575Z,13.22
2018-11-10T06:16:42.860Z,13.22
2018-11-10T06:17:43.175Z,13.23
2018-11-10T06:18:42.985Z,13.23
2018-11-10T06:19:42.935Z,13.31
2018-11-10T06:20:42.690Z,13.27
2018-11-10T06:21:42.967Z,13.25
2018-11-10T06:22:42.987Z,13.23
2018-11-10T06:23:43.025Z,13.27
2018-11-10T06:24:42.784Z,13.28
2018-11-10T06:25:42.789Z,13.27
2018-11-10T06:26:42.806Z,13.41
2018-11-10T06:27:43.112Z,13.31
2018-11-10T06:28:43.127Z,13.39
2018-11-10T06:29:43.417Z,13.39
2018-11-10T06:30:43.434Z,13.37
2018-11-10T06:31:43.192Z,13.39
2018-11-10T06:32:43.123Z,13.35
2018-11-10T06:33:43.246Z,13.5
2018-11-10T06:34:42.984Z,13.37
2018-11-10T06:35:43.271Z,13.44
2018-11-10T06:36:43.571Z,13.42
2018-11-10T06:37:43.319Z,13.42
2018-11-10T06:38:43.340Z,13.41
2018-11-10T06:39:43.364Z,13.41
2018-11-10T06:40:43.659Z,13.42
2018-11-10T06:41:43.680Z,13.41
2018-11-10T06:42:43.433Z,13.37
2018-11-10T06:43:43.725Z,13.37
2018-11-10T06:44:43.760Z,13.46
2018-11-10T06:45:43.505Z,13.46
2018-11-10T06:46:43.517Z,13.39
2018-11-10T06:47:43.550Z,13.33
2018-11-10T06:48:43.563Z,13.41
2018-11-10T06:49:43.589Z,13.44
2018-11-10T06:50:43.340Z,13.41
2018-11-10T06:51:43.368Z,13.47
2018-11-10T06:52:43.687Z,13.39
2018-11-10T06:53:43.670Z,13.41
2018-11-10T06:54:43.699Z,13.44
2018-11-10T06:55:43.714Z,13.47
2018-11-10T06:56:43.471Z,13.41
2018-11-10T06:57:43.777Z,13.37
2018-11-10T06:58:43.790Z,13.35
2018-11-10T06:59:43.534Z,13.39
2018-11-10T07:00:43.819Z,13.44
2018-11-10T07:01:43.575Z,13.46
2018-11-10T07:02:43.598Z,13.39
2018-11-10T07:03:43.887Z,13.44
2018-11-10T07:04:43.912Z,13.41
2018-11-10T07:05:43.670Z,13.33
2018-11-10T07:06:43.950Z,13.42
2018-11-10T07:07:44.243Z,13.42
2018-11-10T07:08:43.996Z,13.38
2018-11-10T07:09:44.469Z,13.33
2018-11-10T07:10:44.039Z,13.22
2018-11-10T07:11:44.061Z,13.39
2018-11-10T07:12:44.097Z,13.39
2018-11-10T07:13:44.116Z,13.39
2018-11-10T07:14:44.131Z,13.39
2018-11-10T07:15:43.885Z,13.35
2018-11-10T07:16:44.177Z,13.33
2018-11-10T07:17:44.824Z,13.39
2018-11-10T07:18:44.231Z,13.44
2018-11-10T07:19:43.969Z,13.41
2018-11-10T07:20:44.257Z,13.44
2018-11-10T07:21:44.546Z,13.5
2018-11-10T07:22:44.318Z,13.44
2018-11-10T07:23:44.331Z,13.44
2018-11-10T07:24:44.117Z,13.44
2018-11-10T07:25:44.380Z,13.47
2018-11-10T07:26:44.388Z,13.46
2018-11-10T07:27:44.682Z,13.52
2018-11-10T07:28:44.164Z,13.44
2018-11-10T07:29:44.472Z,13.59
2018-11-10T07:30:44.756Z,13.52
2018-11-10T07:31:44.563Z,13.59
2018-11-10T07:32:44.273Z,13.56
2018-11-10T07:33:44.556Z,13.72
2018-11-10T07:34:44.563Z,13.59
2018-11-10T07:35:44.322Z,13.6
2018-11-10T07:36:44.347Z,13.57
2018-11-10T07:37:44.629Z,13.56
2018-11-10T07:38:44.654Z,13.57
2018-11-10T07:39:44.693Z,13.52
2018-11-10T07:40:44.427Z,13.6
2018-11-10T07:41:44.733Z,13.62
2018-11-10T07:42:45.007Z,13.63
2018-11-10T07:43:44.772Z,13.59
2018-11-10T07:44:44.782Z,13.65
2018-11-10T07:45:44.814Z,13.68
2018-11-10T07:46:44.556Z,13.62
2018-11-10T07:47:44.850Z,13.68
2018-11-10T07:48:45.155Z,13.67
2018-11-10T07:49:45.172Z,13.6
2018-11-10T07:50:44.978Z,13.7
2018-11-10T07:51:44.940Z,13.67
2018-11-10T07:52:45.235Z,13.67
2018-11-10T07:53:44.726Z,13.72
2018-11-10T07:54:45.008Z,13.71
2018-11-10T07:55:45.196Z,13.74
2018-11-10T07:56:45.054Z,13.65
2018-11-10T07:57:45.066Z,13.77
2018-11-10T07:58:45.371Z,13.62
2018-11-10T07:59:44.844Z,13.63
2018-11-10T08:00:45.139Z,13.77
2018-11-10T08:01:45.155Z,13.7
2018-11-10T08:02:44.914Z,13.72
2018-11-10T08:03:45.482Z,13.83
2018-11-10T08:04:44.952Z,13.74
2018-11-10T08:05:44.985Z,13.78
2018-11-10T08:06:45.010Z,13.74
2018-11-10T08:07:45.311Z,13.77
2018-11-10T08:08:45.313Z,13.78
2018-11-10T08:09:45.597Z,13.78
2018-11-10T08:10:45.359Z,13.75
2018-11-10T08:11:45.167Z,13.74
2018-11-10T08:12:45.398Z,13.7
2018-11-10T08:13:45.682Z,13.75
2018-11-10T08:14:45.177Z,13.75
2018-11-10T08:15:45.196Z,13.74
2018-11-10T08:16:45.751Z,13.68
2018-11-10T08:17:45.252Z,13.74
2018-11-10T08:18:46.082Z,13.78
2018-11-10T08:19:45.570Z,13.74
2018-11-10T08:20:45.585Z,13.79
2018-11-10T08:21:45.605Z,13.78
2018-11-10T08:22:45.623Z,13.72
2018-11-10T08:23:45.650Z,13.75
2018-11-10T08:24:45.927Z,13.74
2018-11-10T08:25:45.682Z,13.75
2018-11-10T08:26:45.722Z,13.79
2018-11-10T08:27:45.477Z,13.72
2018-11-10T08:28:46.016Z,13.72
2018-11-10T08:29:45.784Z,13.75
2018-11-10T08:30:45.805Z,13.74
2018-11-10T08:31:45.818Z,13.78
2018-11-10T08:32:45.572Z,13.7
2018-11-10T08:33:45.864Z,13.79
2018-11-10T08:34:45.881Z,13.72
2018-11-10T08:35:46.197Z,13.78
2018-11-10T08:36:45.940Z,13.75
2018-11-10T08:37:45.949Z,13.74
2018-11-10T08:38:46.248Z,13.81
2018-11-10T08:39:46.004Z,13.83
2018-11-10T08:40:46.020Z,13.86
2018-11-10T08:41:46.049Z,13.86
2018-11-10T08:42:46.065Z,13.89
2018-11-10T08:43:46.359Z,13.83
2018-11-10T08:44:46.376Z,13.78
2018-11-10T08:45:45.865Z,13.75
2018-11-10T08:46:45.880Z,13.79
2018-11-10T08:47:46.177Z,13.78
2018-11-10T08:48:46.191Z,13.74
2018-11-10T08:49:46.223Z,13.83
2018-11-10T08:50:46.235Z,13.87
2018-11-10T08:51:46.261Z,13.83
2018-11-10T08:52:46.008Z,13.81
2018-11-10T08:53:46.035Z,13.83
2018-11-10T08:54:46.331Z,13.78
2018-11-10T08:55:46.086Z,13.92
2018-11-10T08:56:46.646Z,13.83
2018-11-10T08:57:46.552Z,13.81
2018-11-10T08:58:46.440Z,13.89
2018-11-10T08:59:46.439Z,13.86
2018-11-10T09:00:46.458Z,13.77
2018-11-10T09:01:46.214Z,13.79
2018-11-10T09:02:46.498Z,13.83
2018-11-10T09:03:46.784Z,13.72
2018-11-10T09:04:46.537Z,13.78
2018-11-10T09:05:46.575Z,13.85
2018-11-10T09:06:46.319Z,13.83
2018-11-10T09:07:46.342Z,13.79
2018-11-10T09:08:46.365Z,13.87
2018-11-10T09:09:47.110Z,13.86
2018-11-10T09:10:46.408Z,13.89
2018-11-10T09:11:46.707Z,13.87
2018-11-10T09:12:46.454Z,13.81
2018-11-10T09:13:46.473Z,13.87
2018-11-10T09:14:46.764Z,13.96
2018-11-10T09:15:46.532Z,13.85
2018-11-10T09:16:47.092Z,13.83
2018-11-10T09:17:47.452Z,13.9
2018-11-10T09:18:46.860Z,13.85
2018-11-10T09:19:46.606Z,13.86
2018-11-10T09:20:46.626Z,13.85
2018-11-10T09:21:46.703Z,13.9
2018-11-10T09:22:46.948Z,13.92
2018-11-10T09:23:46.963Z,13.83
2018-11-10T09:24:46.719Z,13.87
2018-11-10T09:25:47.001Z,13.81
2018-11-10T09:26:47.035Z,13.86
2018-11-10T09:27:47.328Z,13.92
2018-11-10T09:28:46.809Z,13.93
2018-11-10T09:29:47.090Z,13.86
2018-11-10T09:30:47.152Z,13.93
2018-11-10T09:31:47.151Z,13.95
2018-11-10T09:32:47.165Z,13.99
2018-11-10T09:33:47.177Z,13.93
2018-11-10T09:34:46.943Z,13.96
2018-11-10T09:35:47.230Z,14
2018-11-10T09:36:47.251Z,13.92
2018-11-10T09:37:47.532Z,13.97
2018-11-10T09:38:47.291Z,13.97
2018-11-10T09:39:47.060Z,13.97
2018-11-10T09:40:47.352Z,13.92
2018-11-10T09:41:47.370Z,13.9
2018-11-10T09:42:47.905Z,13.87
2018-11-10T09:43:47.132Z,13.97
2018-11-10T09:44:47.433Z,13.92
2018-11-10T09:45:47.446Z,13.9
2018-11-10T09:46:47.486Z,13.95
2018-11-10T09:47:47.495Z,13.92
2018-11-10T09:48:47.517Z,13.95
2018-11-10T09:49:47.551Z,13.95
2018-11-10T09:50:47.627Z,13.83
2018-11-10T09:51:47.594Z,13.95
2018-11-10T09:52:47.870Z,13.87
2018-11-10T09:53:47.901Z,13.92
2018-11-10T09:54:47.655Z,13.87
2018-11-10T09:55:47.666Z,13.87
2018-11-10T09:56:47.698Z,13.83
2018-11-10T09:57:47.448Z,13.89
2018-11-10T09:58:47.732Z,13.83
2018-11-10T09:59:48.022Z,13.9
2018-11-10T10:00:47.787Z,13.87
2018-11-10T10:01:49.225Z,13.81
2018-11-10T10:02:50.112Z,13.92
2018-11-10T10:03:47.584Z,13.83
2018-11-10T10:04:47.884Z,13.87
2018-11-10T10:05:47.632Z,13.89
2018-11-10T10:06:47.918Z,13.89
2018-11-10T10:07:47.929Z,13.86
2018-11-10T10:08:48.070Z,13.86
2018-11-10T10:09:47.708Z,13.87
2018-11-10T10:10:47.996Z,13.86
2018-11-10T10:11:48.284Z,13.83
2018-11-10T10:12:48.309Z,13.87
2018-11-10T10:13:48.091Z,13.99
2018-11-10T10:14:47.825Z,13.92
2018-11-10T10:15:48.395Z,13.89
2018-11-10T10:16:48.685Z,13.85
2018-11-10T10:17:48.159Z,13.93
2018-11-10T10:18:47.917Z,14
2018-11-10T10:19:48.467Z,13.99
2018-11-10T10:20:47.990Z,13.9
2018-11-10T10:21:48.316Z,14
2018-11-10T10:22:48.283Z,13.97
2018-11-10T10:23:48.017Z,13.96
2018-11-10T10:24:48.307Z,14.04
2018-11-10T10:25:48.605Z,13.96
2018-11-10T10:26:48.097Z,14.03
2018-11-10T10:27:48.373Z,14.03
2018-11-10T10:28:48.544Z,14.04
2018-11-10T10:29:48.167Z,14.04
2018-11-10T10:30:48.449Z,14.03
2018-11-10T10:31:48.460Z,14
2018-11-10T10:32:48.489Z,14
2018-11-10T10:33:48.829Z,13.97
2018-11-10T10:34:48.420Z,13.97
2018-11-10T10:35:48.550Z,14.03
2018-11-10T10:36:48.306Z,14.11
2018-11-10T10:37:48.595Z,14.07
2018-11-10T10:38:48.350Z,14.08
2018-11-10T10:39:48.905Z,14.07
2018-11-10T10:40:48.399Z,14.08
2018-11-10T10:41:48.423Z,14.07
2018-11-10T10:42:48.496Z,14.05
2018-11-10T10:43:48.732Z,14.04
2018-11-10T10:44:48.749Z,14.07
2018-11-10T10:45:48.767Z,13.99
2018-11-10T10:46:48.809Z,14.11
2018-11-10T10:47:49.084Z,14.11
2018-11-10T10:48:49.253Z,14.07
2018-11-10T10:49:48.600Z,14.05
2018-11-10T10:50:48.620Z,14.1
2018-11-10T10:51:48.907Z,14.05
2018-11-10T10:52:48.671Z,14.08
2018-11-10T10:53:48.969Z,13.99
2018-11-10T10:54:48.972Z,14.17
2018-11-10T10:55:49.084Z,14.14
2018-11-10T10:56:49.120Z,14.17
2018-11-10T10:57:48.773Z,14.11
2018-11-10T10:58:49.077Z,14.14
2018-11-10T10:59:49.093Z,14.08
2018-11-10T11:00:48.843Z,14.12
2018-11-10T11:01:48.866Z,14.12
2018-11-10T11:02:48.947Z,14.14
2018-11-10T11:03:49.174Z,14.14
2018-11-10T11:04:49.190Z,14.11
2018-11-10T11:05:49.216Z,14.15
2018-11-10T11:06:48.977Z,14.14
2018-11-10T11:07:48.994Z,14.1
2018-11-10T11:08:49.072Z,14.1
2018-11-10T11:09:49.036Z,14.11
2018-11-10T11:10:49.328Z,14.1
2018-11-10T11:11:49.353Z,14.1
2018-11-10T11:12:49.377Z,14.1
2018-11-10T11:13:49.127Z,14.11
2018-11-10T11:14:49.421Z,14.12
2018-11-10T11:15:49.206Z,14.1
2018-11-10T11:16:49.200Z,14.1
2018-11-10T11:17:49.217Z,14.07
2018-11-10T11:18:49.514Z,14.1
2018-11-10T11:19:49.810Z,14.11
2018-11-10T11:20:49.889Z,14.15
2018-11-10T11:21:49.355Z,14.14
2018-11-10T11:22:49.870Z,14.14
2018-11-10T11:23:49.349Z,14.17
2018-11-10T11:24:49.918Z,14.15
2018-11-10T11:25:49.677Z,14.18
2018-11-10T11:26:49.686Z,14.2
2018-11-10T11:27:49.459Z,14.25
2018-11-10T11:28:50.000Z,14.22
2018-11-10T11:29:50.320Z,14.22
2018-11-10T11:30:49.772Z,14.17
2018-11-10T11:31:49.789Z,14.22
2018-11-10T11:32:49.550Z,14.26
2018-11-10T11:33:49.957Z,14.35
2018-11-10T11:34:49.875Z,14.33
2018-11-10T11:35:49.617Z,14.32
2018-11-10T11:36:49.638Z,14.32
2018-11-10T11:37:50.205Z,14.26
2018-11-10T11:38:49.958Z,14.44
2018-11-10T11:39:51.030Z,14.51
2018-11-10T11:40:53.528Z,14.7
2018-11-10T11:41:52.554Z,14.89
2018-11-10T11:42:52.029Z,15.19
2018-11-10T11:43:52.288Z,15.43
2018-11-10T11:44:51.787Z,15.68
2018-11-10T11:45:52.038Z,15.92
2018-11-10T11:46:51.750Z,16.29
2018-11-10T11:47:51.926Z,16.58
2018-11-10T11:48:51.877Z,16.78
2018-11-10T11:49:51.761Z,17.11
2018-11-10T11:50:50.503Z,17.44
2018-11-10T11:51:50.251Z,17.51
2018-11-10T11:52:50.004Z,17.52
2018-11-10T11:53:50.568Z,17.64
2018-11-10T11:54:50.044Z,17.52
2018-11-10T11:55:50.602Z,17.52
2018-11-10T11:56:50.095Z,17.42
2018-11-10T11:57:50.150Z,17.39
2018-11-10T11:58:50.422Z,17.24
2018-11-10T11:59:50.433Z,17.27
2018-11-10T12:00:50.186Z,17.16
2018-11-10T12:01:50.219Z,17.16
2018-11-10T12:02:50.494Z,17.06
2018-11-10T12:03:50.781Z,16.93
2018-11-10T12:04:50.275Z,16.89
2018-11-10T12:05:50.564Z,16.84
2018-11-10T12:06:50.604Z,16.79
2018-11-10T12:07:50.354Z,16.68
2018-11-10T12:08:50.362Z,16.58
2018-11-10T12:09:50.385Z,16.58
2018-11-10T12:10:50.689Z,16.57
2018-11-10T12:11:50.708Z,16.47
2018-11-10T12:12:50.720Z,16.43
2018-11-10T12:13:51.018Z,16.32
2018-11-10T12:14:51.060Z,16.29
2018-11-10T12:15:50.536Z,16.28
2018-11-10T12:16:50.995Z,16.21
2018-11-10T12:17:50.854Z,16.21
2018-11-10T12:18:50.871Z,16.17
2018-11-10T12:19:51.180Z,16.2
2018-11-10T12:20:51.067Z,16.08
2018-11-10T12:21:50.951Z,16.05
2018-11-10T12:22:50.968Z,16
2018-11-10T12:23:50.715Z,15.92
2018-11-10T12:24:51.262Z,15.95
2018-11-10T12:25:50.752Z,16.01
2018-11-10T12:26:51.217Z,15.94
2018-11-10T12:27:51.066Z,16
2018-11-10T12:28:51.101Z,15.86
2018-11-10T12:29:51.128Z,15.92
2018-11-10T12:30:50.876Z,15.88
2018-11-10T12:31:51.696Z,15.91
2018-11-10T12:32:51.191Z,15.91
2018-11-10T12:33:51.217Z,15.86
2018-11-10T12:34:51.240Z,15.82
2018-11-10T12:35:51.531Z,15.84
2018-11-10T12:36:51.002Z,15.79
2018-11-10T12:37:51.301Z,15.77
2018-11-10T12:38:51.185Z,15.83
2018-11-10T12:39:51.340Z,15.84
2018-11-10T12:40:51.384Z,15.76
2018-11-10T12:41:51.654Z,15.8
2018-11-10T12:42:51.140Z,15.86
2018-11-10T12:43:51.170Z,15.82
2018-11-10T12:44:51.453Z,15.79
2018-11-10T12:45:51.647Z,15.75
2018-11-10T12:46:51.240Z,15.73
2018-11-10T12:47:51.535Z,15.75
2018-11-10T12:48:51.634Z,15.68
2018-11-10T12:49:51.570Z,15.7
2018-11-10T12:50:51.323Z,15.7
2018-11-10T12:51:51.616Z,15.67
2018-11-10T12:52:51.908Z,15.65
2018-11-10T12:53:51.676Z,15.61
2018-11-10T12:54:51.800Z,15.64
2018-11-10T12:55:51.712Z,15.68